Time;durP1;ratioP1;P1;durP2;ratioP2;P2;SDS_P1;SDS_P2;PMS_P1;PMS_P2;Temp;Humidity;BMP_temperature;BMP_pressure;BME280_temperature;BME280_humidity;BME280_pressure;Samples;Min_cycle;Max_cycle;Signal;HPM_P1;HPM_P2
2022/05/01 00:02:14;;;;;;;2.10;1.20;;;;;;;8.93;62.24;101653.70;104189;1288;76290;-78
2022/05/01 00:05:01;;;;;;;2.70;1.50;;;;;;;8.92;62.12;101655.63;104202;1288;71338;-79
2022/05/01 00:07:28;;;;;;;2.40;1.10;;;;;;;8.89;62.19;101652.84;104129;1290;72936;-80
2022/05/01 00:10:00;;;;;;;3.30;1.20;;;;;;;8.90;62.24;101656.98;104209;1288;61462;-78
2022/05/01 00:12:29;;;;;;;6.40;1.60;;;;;;;8.89;62.35;101656.20;104273;1288;62001;-78
2022/05/01 00:14:59;;;;;;;2.60;1.30;;;;;;;8.88;62.34;101651.35;104170;1288;76020;-78
2022/05/01 00:17:25;;;;;;;1.80;1.10;;;;;;;8.87;62.44;101649.56;103879;1288;71418;-78
2022/05/01 00:20:19;;;;;;;;;;;;;;;;;;;;;
2022/05/01 00:22:49;;;;;;;2.10;1.20;;;;;;;8.83;62.41;101643.03;103835;1289;61742;-77
2022/05/01 00:25:30;;;;;;;4.00;1.90;;;;;;;8.82;62.61;101639.27;104241;1288;61778;-78
2022/05/01 00:27:59;;;;;;;3.40;1.70;;;;;;;8.81;62.63;101634.94;103928;1289;76190;-78
2022/05/01 00:30:36;;;;;;;6.30;1.70;;;;;;;8.79;62.62;101632.75;104202;1287;72697;-78
2022/05/01 00:38:48;;;;;;;4.80;2.60;;;;;;;8.75;62.84;101640.93;104045;1288;61224;-77
2022/05/01 00:41:41;;;;;;;4.10;1.50;;;;;;;8.74;62.86;101642.74;104057;1290;75995;-78
2022/05/01 00:44:42;;;;;;;3.00;1.60;;;;;;;8.73;63.29;101642.31;104085;1288;72428;-78
2022/05/01 00:47:15;;;;;;;4.20;1.30;;;;;;;8.72;63.30;101641.05;104241;1288;73973;-77
2022/05/01 00:50:17;;;;;;;3.90;1.50;;;;;;;8.70;63.26;101636.76;104046;1290;61429;-79
2022/05/01 00:52:45;;;;;;;3.40;1.40;;;;;;;8.69;63.19;101643.11;104182;1290;61377;-78
2022/05/01 00:55:33;;;;;;;3.30;1.20;;;;;;;8.66;63.51;101642.33;104097;1290;77278;-77
2022/05/01 00:58:11;;;;;;;2.60;1.30;;;;;;;8.62;63.65;101640.68;104214;1288;72922;-79
2022/05/01 01:00:49;;;;;;;;;;;;;;;;;;;;;
2022/05/01 01:03:38;;;;;;;3.10;1.40;;;;;;;8.57;63.98;101642.74;104190;1288;61296;-79
2022/05/01 01:06:34;;;;;;;2.80;1.60;;;;;;;8.55;63.97;101645.14;104180;1288;61283;-79
2022/05/01 01:09:04;;;;;;;3.10;1.70;;;;;;;8.54;64.33;101645.84;104128;1288;75374;-79
2022/05/01 01:11:43;;;;;;;2.10;1.40;;;;;;;8.52;64.53;101643.13;104135;1288;72454;-79
2022/05/01 01:14:15;;;;;;;2.30;1.30;;;;;;;8.50;64.72;101638.93;104002;1289;74127;-79
2022/05/01 01:16:46;;;;;;;2.50;0.90;;;;;;;8.46;64.63;101638.95;103975;1288;61293;-79
2022/05/01 01:19:22;;;;;;;3.70;1.30;;;;;;;8.43;64.81;101641.65;104157;1288;61742;-81
2022/05/01 01:22:06;;;;;;;2.00;1.20;;;;;;;8.42;64.96;101643.91;104388;1288;75010;-79
2022/05/01 01:24:45;;;;;;;1.90;1.00;;;;;;;8.41;64.94;101640.80;104096;1288;72634;-80
2022/05/01 01:27:15;;;;;;;2.40;1.60;;;;;;;8.40;65.05;101639.16;104036;1288;72381;-81
2022/05/01 01:32:29;;;;;;;3.50;1.40;;;;;;;8.36;65.43;101637.15;103851;1290;61656;-79
2022/05/01 01:35:01;;;;;;;4.00;2.20;;;;;;;8.35;65.55;101636.05;103704;1290;76013;-79
2022/05/01 01:37:32;;;;;;;2.40;1.60;;;;;;;8.34;65.35;101639.10;104081;1290;73507;-79
2022/05/01 01:39:59;;;;;;;3.50;1.30;;;;;;;8.33;65.53;101641.63;104963;1290;72023;-80
2022/05/01 01:42:36;;;;;;;3.60;2.00;;;;;;;8.32;65.83;101640.31;104164;1288;61344;-80
2022/05/01 01:45:08;;;;;;;5.80;1.70;;;;;;;8.31;65.81;101644.16;104553;1288;59789;-79
2022/05/01 01:47:50;;;;;;;2.30;1.50;;;;;;;8.31;65.82;101644.70;104157;1288;76268;-79
2022/05/01 01:50:36;;;;;;;2.70;1.60;;;;;;;8.30;65.91;101648.80;103933;1288;72794;-79
2022/05/01 01:53:12;;;;;;;2.50;1.50;;;;;;;8.29;66.16;101649.81;104207;1288;73058;-78
2022/05/01 01:55:49;;;;;;;3.10;1.50;;;;;;;8.27;66.26;101646.94;103962;1289;62062;-79
2022/05/01 01:58:18;;;;;;;5.30;1.50;;;;;;;8.26;66.55;101641.26;104208;1288;61346;-79
2022/05/01 02:01:26;;;;;;;2.70;1.40;;;;;;;8.24;66.84;101637.05;104095;1288;74812;-77
2022/05/01 02:04:15;;;;;;;4.10;1.70;;;;;;;8.22;67.01;101645.25;104051;1290;73390;-78
2022/05/01 02:07:01;;;;;;;2.70;1.50;;;;;;;8.21;67.36;101648.59;104095;1288;73262;-76
2022/05/01 02:09:48;;;;;;;3.00;1.80;;;;;;;8.20;67.04;101650.42;104194;1288;61378;-78
2022/05/01 02:12:22;;;;;;;2.80;1.50;;;;;;;8.17;67.30;101648.17;104177;1288;61344;-78
2022/05/01 02:14:49;;;;;;;2.70;1.50;;;;;;;8.18;67.53;101651.67;104425;1288;74940;-79
2022/05/01 02:17:37;;;;;;;4.00;2.00;;;;;;;8.15;67.54;101651.83;104167;1288;72879;-78
2022/05/01 02:20:19;;;;;;;2.70;1.60;;;;;;;8.15;67.73;101654.04;104197;1288;74265;-79
2022/05/01 02:23:46;;;;;;;;;;;;;;;;;;;;;
2022/05/01 02:26:24;;;;;;;2.40;1.50;;;;;;;8.13;68.00;101649.77;103947;1287;61312;-79
2022/05/01 02:28:53;;;;;;;5.70;1.30;;;;;;;8.11;68.20;101646.63;104214;1288;76198;-79
2022/05/01 02:32:26;;;;;;;2.10;1.50;;;;;;;8.09;68.45;101645.56;104207;1288;72991;-79
2022/05/01 02:35:14;;;;;;;3.00;1.70;;;;;;;8.06;68.58;101642.61;104147;1287;72254;-79
2022/05/01 02:38:02;;;;;;;6.30;1.90;;;;;;;8.07;68.58;101643.99;103973;1290;61351;-79
2022/05/01 02:40:33;;;;;;;2.30;1.30;;;;;;;8.06;68.73;101643.16;104134;1288;61321;-79
2022/05/01 02:43:00;;;;;;;4.50;1.50;;;;;;;8.06;68.80;101638.96;105697;1288;74987;-79
2022/05/01 02:45:49;;;;;;;2.20;1.40;;;;;;;8.05;68.93;101638.17;104086;1290;71591;-79
2022/05/01 02:48:27;;;;;;;2.90;1.70;;;;;;;8.03;69.13;101634.77;104246;1288;71963;-80
2022/05/01 02:50:54;;;;;;;4.40;1.70;;;;;;;8.01;69.77;101635.67;104029;1288;61386;-80
2022/05/01 02:53:23;;;;;;;4.40;1.70;;;;;;;8.00;69.58;101633.85;104160;1288;61243;-80
2022/05/01 02:56:41;;;;;;;3.20;1.50;;;;;;;7.98;69.85;101628.73;104052;1288;76130;-79
2022/05/01 02:58:59;;;;;;;;;;;;;;;;;;;;;
2022/05/01 03:01:36;;;;;;;3.00;1.50;;;;;;;7.93;70.38;101624.23;104311;1288;73102;-80
2022/05/01 03:04:36;;;;;;;3.60;1.50;;;;;;;7.91;70.47;101622.98;104072;1288;61133;-82
2022/05/01 03:07:44;;;;;;;;;;;;;;;;;;;;;
2022/05/01 03:10:19;;;;;;;3.80;1.60;;;;;;;7.85;70.87;101625.64;104139;1288;76160;-79
2022/05/01 03:13:14;;;;;;;3.80;1.60;;;;;;;7.83;71.05;101625.62;104302;1288;70093;-80
2022/05/01 03:15:56;;;;;;;;;;;;;;;7.80;71.37;101623.61;104151;1288;74174;-82
2022/05/01 03:25:28;;;;;;;3.10;1.70;;;;;;;7.76;72.00;101617.92;103519;1294;76253;-80
2022/05/01 03:28:06;;;;;;;3.70;1.50;;;;;;;7.73;72.05;101615.53;104176;1288;71411;-81
2022/05/01 03:30:43;;;;;;;3.30;2.00;;;;;;;7.71;71.95;101617.70;104192;1288;74306;-81
2022/05/01 03:33:42;;;;;;;;;;;;;;;;;;;;;
2022/05/01 03:36:37;;;;;;;;;;;;;;;;;;;;;
2022/05/01 03:39:05;;;;;;;4.20;1.70;;;;;;;7.63;72.39;101622.46;104237;1288;76024;-80
2022/05/01 03:41:40;;;;;;;5.60;2.50;;;;;;;7.62;72.73;101622.52;104055;1290;72456;-80
2022/05/01 03:44:47;;;;;;;2.40;1.50;;;;;;;7.61;72.99;101623.83;104175;1288;74249;-80
2022/05/01 03:48:06;;;;;;;4.50;2.00;;;;;;;7.61;73.22;101627.58;104863;1290;62473;-80
2022/05/01 03:50:32;;;;;;;3.00;1.60;;;;;;;7.59;73.56;101621.38;103912;1290;61351;-81
2022/05/01 03:54:00;;;;;;;4.30;2.10;;;;;;;7.59;73.95;101622.81;104115;1288;75009;-79
2022/05/01 03:57:25;;;;;;;3.50;2.00;;;;;;;7.57;74.65;101619.77;104066;1290;71471;-78
2022/05/01 04:00:21;;;;;;;;;;;;;;;;;;;;;
2022/05/01 04:03:47;;;;;;;;;;;;;;;;;;;;;
2022/05/01 04:06:34;;;;;;;4.60;1.60;;;;;;;7.57;74.88;101624.76;104713;1290;61180;-79
2022/05/01 04:09:04;;;;;;;3.40;2.00;;;;;;;7.58;75.23;101626.23;104042;1290;74954;-81
2022/05/01 04:11:39;;;;;;;4.30;2.20;;;;;;;7.58;75.30;101626.70;104259;1288;72450;-79
2022/05/01 04:14:40;;;;;;;3.10;1.90;;;;;;;7.59;75.35;101625.29;104285;1288;74083;-79
2022/05/01 04:17:56;;;;;;;7.40;3.30;;;;;;;7.59;75.63;101626.48;104236;1288;62165;-77
2022/05/01 04:20:51;;;;;;;4.20;1.90;;;;;;;7.59;76.09;101630.18;104025;1288;62135;-77
2022/05/01 04:23:43;;;;;;;3.30;1.80;;;;;;;7.59;76.26;101630.69;104220;1288;76263;-78
2022/05/01 04:26:38;;;;;;;4.10;1.70;;;;;;;7.60;76.55;101635.52;104309;1288;71540;-77
2022/05/01 04:32:58;;;;;;;;;;;;;;;;;;;;;
2022/05/01 04:36:33;;;;;;;3.40;1.80;;;;;;;7.59;77.59;101638.81;103507;1294;62071;-77
2022/05/01 04:39:27;;;;;;;3.10;2.30;;;;;;;7.59;77.71;101636.36;103360;1294;74972;-79
2022/05/01 04:42:00;;;;;;;;;;;;;;;7.60;78.01;101636.83;104239;1288;72437;-79
2022/05/01 04:44:27;;;;;;;8.50;2.80;;;;;;;7.61;78.07;101639.21;104296;1288;72993;-77
2022/05/01 04:47:42;;;;;;;5.50;1.80;;;;;;;7.59;78.88;101640.00;103894;1290;62535;-77
2022/05/01 04:50:09;;;;;;;5.30;2.00;;;;;;;7.58;78.73;101634.81;104301;1288;62436;-77
2022/05/01 04:53:25;;;;;;;3.30;1.70;;;;;;;7.60;79.00;101639.77;105181;1287;76438;-78
2022/05/01 04:57:05;;;;;;;3.50;2.40;;;;;;;7.60;79.24;101638.05;104319;1288;72437;-78
2022/05/01 04:59:18;;;;;;;;;;;;;;;;;;;;;
2022/05/01 05:01:45;;;;;;;5.90;2.10;;;;;;;7.62;79.89;101643.45;106787;1288;61678;-78
2022/05/01 05:04:51;;;;;;;8.90;2.40;;;;;;;7.63;79.40;101643.56;105030;1290;61809;-77
2022/05/01 05:07:44;;;;;;;4.70;2.50;;;;;;;7.65;79.73;101646.52;104150;1288;74306;-79
2022/05/01 05:10:42;;;;;;;3.70;2.00;;;;;;;7.67;79.77;101646.00;104259;1288;72229;-78
2022/05/01 05:13:21;;;;;;;4.10;1.90;;;;;;;7.69;80.10;101649.68;104437;1287;74106;-79
2022/05/01 05:16:00;;;;;;;4.70;1.60;;;;;;;7.70;80.56;101649.79;104079;1290;62233;-78
2022/05/01 05:19:00;;;;;;;4.30;2.00;;;;;;;7.71;80.96;101645.34;104258;1287;61230;-78
2022/05/01 05:21:30;;;;;;;5.90;3.40;;;;;;;7.73;81.01;101649.05;104078;1288;77404;-78
2022/05/01 05:23:57;;;;;;;4.90;2.50;;;;;;;7.76;80.96;101651.06;103970;1288;72817;-77
2022/05/01 05:26:40;;;;;;;;;;;;;;;;;;;;;
2022/05/01 05:29:10;;;;;;;5.10;2.90;;;;;;;7.82;81.19;101662.05;104141;1289;61500;-78
2022/05/01 05:31:47;;;;;;;;;;;;;;;;;;;;;
2022/05/01 05:34:15;;;;;;;7.70;3.40;;;;;;;7.90;81.16;101667.08;103990;1290;75124;-79
2022/05/01 05:36:43;;;;;;;6.30;2.50;;;;;;;7.94;81.04;101660.92;104036;1288;73161;-80
2022/05/01 05:39:20;;;;;;;8.00;2.90;;;;;;;7.98;81.18;101662.05;104256;1288;74026;-80
2022/05/01 05:42:21;;;;;;;6.20;2.30;;;;;;;8.01;81.27;101664.04;104217;1286;61435;-82
2022/05/01 05:45:14;;;;;;;5.50;2.60;;;;;;;8.06;81.16;101668.20;104202;1286;62532;-80
2022/05/01 05:47:40;;;;;;;5.80;3.10;;;;;;;8.11;81.18;101669.85;104313;1288;75007;-81
2022/05/01 05:50:17;;;;;;;5.40;2.60;;;;;;;8.17;81.01;101669.52;104271;1288;72165;-79
2022/05/01 05:53:01;;;;;;;4.90;2.50;;;;;;;8.23;80.95;101672.71;104224;1288;75158;-78
2022/05/01 05:55:46;;;;;;;6.70;2.60;;;;;;;8.26;81.17;101671.00;105162;1288;61333;-79
2022/05/01 05:58:15;;;;;;;9.60;3.70;;;;;;;8.28;81.20;101668.70;104894;1290;61515;-80
2022/05/01 06:01:02;;;;;;;;;;;;;;;;;;;;;
2022/05/01 06:03:31;;;;;;;5.50;2.90;;;;;;;8.46;81.06;101665.58;104218;1288;72515;-79
2022/05/01 06:06:19;;;;;;;;;;;;;;;;;;;;;
2022/05/01 06:08:51;;;;;;;3.60;2.20;;;;;;;8.67;80.47;101672.88;104289;1288;62355;-80
2022/05/01 06:12:09;;;;;;;5.80;2.60;;;;;;;8.74;80.01;101670.60;104272;1288;61207;-80
2022/05/01 06:15:16;;;;;;;;;;;;;;;;;;;;;
2022/05/01 06:17:46;;;;;;;8.80;3.00;;;;;;;9.03;79.00;101675.10;104170;1288;70103;-80
2022/05/01 06:20:49;;;;;;;7.30;2.70;;;;;;;9.11;78.95;101676.65;104112;1289;72055;-80
2022/05/01 06:23:31;;;;;;;6.20;2.80;;;;;;;9.25;78.73;101679.58;104235;1288;62430;-80
2022/05/01 06:26:08;;;;;;;5.50;3.60;;;;;;;9.38;78.18;101683.69;104147;1287;61346;-80
2022/05/01 06:29:03;;;;;;;;;;;;;;;;;;;;;
2022/05/01 06:31:32;;;;;;;5.70;2.20;;;;;;;9.52;77.03;101687.63;104193;1288;72400;-77
2022/05/01 06:33:59;;;;;;;6.80;3.10;;;;;;;9.53;76.68;101683.11;104189;1288;73049;-76
2022/05/01 06:36:32;;;;;;;6.50;3.10;;;;;;;9.57;76.49;101685.25;104204;1288;63383;-80
2022/05/01 06:39:28;;;;;;;;;;;;;;;;;;;;;
2022/05/01 06:42:05;;;;;;;4.30;2.70;;;;;;;9.64;76.37;101689.73;104450;1288;76034;-79
2022/05/01 06:44:39;;;;;;;5.10;2.50;;;;;;;9.65;76.19;101688.55;104135;1288;73042;-79
2022/05/01 06:47:22;;;;;;;5.90;2.80;;;;;;;9.70;75.97;101687.59;104196;1287;74132;-78
2022/05/01 06:49:59;;;;;;;5.30;2.80;;;;;;;9.78;75.83;101686.77;104469;1288;64368;-77
2022/05/01 06:52:56;;;;;;;3.90;2.90;;;;;;;9.90;75.95;101684.83;104409;1288;61787;-80
2022/05/01 06:55:37;;;;;;;4.90;2.70;;;;;;;10.01;75.21;101681.41;105007;1289;75013;-82
2022/05/01 06:58:24;;;;;;;;;;;;;;;;;;;;;
2022/05/01 07:01:07;;;;;;;3.60;2.30;;;;;;;10.24;74.63;101682.77;104257;1288;72917;-81
2022/05/01 07:03:37;;;;;;;7.90;2.60;;;;;;;10.36;74.39;101685.18;105032;1287;62266;-81
2022/05/01 07:06:21;;;;;;;;;;;;;;;;;;;;;
2022/05/01 07:09:07;;;;;;;7.30;2.20;;;;;;;10.57;73.76;101683.48;104997;1288;76185;-81
2022/05/01 07:12:09;;;;;;;5.00;2.10;;;;;;;10.66;72.73;101678.92;104004;1288;72635;-81
2022/05/01 07:14:40;;;;;;;4.90;2.90;;;;;;;10.80;72.70;101681.09;105604;1288;74277;-81
2022/05/01 07:17:07;;;;;;;6.30;3.20;;;;;;;10.96;73.18;101678.55;104313;1288;63395;-81
2022/05/01 07:19:54;;;;;;;8.30;3.00;;;;;;;11.12;71.96;101682.27;104247;1288;61342;-81
2022/05/01 07:23:01;;;;;;;6.00;2.60;;;;;;;11.21;71.28;101679.59;105094;1288;75108;-82
2022/05/01 07:25:39;;;;;;;5.30;2.70;;;;;;;11.23;69.88;101681.87;104037;1290;72285;-80
2022/05/01 07:28:32;;;;;;;4.60;2.50;;;;;;;11.29;70.05;101684.69;105009;1288;74036;-81
2022/05/01 07:30:59;;;;;;;5.10;2.60;;;;;;;11.35;70.09;101689.20;104900;1288;61923;-83
2022/05/01 07:33:26;;;;;;;5.60;3.10;;;;;;;11.43;70.03;101690.68;104230;1288;61440;-68
2022/05/01 07:35:53;;;;;;;5.10;3.00;;;;;;;11.52;70.06;101692.91;104327;1288;74925;-70
2022/05/01 07:38:25;;;;;;;6.50;2.40;;;;;;;11.61;69.46;101690.27;104337;1288;72611;-67
2022/05/01 07:40:57;;;;;;;6.00;2.30;;;;;;;11.68;68.79;101693.40;104302;1288;74063;-67
2022/05/01 07:43:34;;;;;;;6.90;3.60;;;;;;;11.68;68.28;101693.56;104434;1288;63775;-68
2022/05/01 07:46:02;;;;;;;6.70;2.90;;;;;;;11.70;68.29;101692.15;106863;1287;63417;-68
2022/05/01 07:48:36;;;;;;;8.00;4.10;;;;;;;11.73;68.17;101689.58;106856;1288;75742;-68
2022/05/01 07:51:07;;;;;;;6.40;2.90;;;;;;;11.75;67.92;101688.98;106765;1288;72425;-66
2022/05/01 07:53:34;;;;;;;4.60;3.00;;;;;;;11.74;67.62;101688.55;104291;1288;73262;-67
2022/05/01 07:56:01;;;;;;;4.00;2.70;;;;;;;11.70;67.57;101691.45;103849;1288;62227;-68
2022/05/01 07:58:33;;;;;;;7.50;2.80;;;;;;;11.68;67.23;101692.39;104251;1288;61819;-67
2022/05/01 08:01:19;;;;;;;7.90;3.40;;;;;;;11.63;67.41;101694.49;104262;1290;74906;-67
2022/05/01 08:06:36;;;;;;;5.80;3.00;;;;;;;11.60;67.58;101696.17;104204;1288;74247;-68
2022/05/01 08:09:06;;;;;;;5.10;2.30;;;;;;;11.55;67.37;101699.17;103962;1288;63462;-67
2022/05/01 08:11:36;;;;;;;6.00;3.10;;;;;;;11.46;66.92;101697.62;104670;1288;62097;-68
2022/05/01 08:14:27;;;;;;;6.50;2.80;;;;;;;11.39;67.44;101693.66;104096;1290;75996;-68
2022/05/01 08:16:57;;;;;;;5.90;3.10;;;;;;;11.39;67.14;101692.13;104191;1288;72451;-67
2022/05/01 08:22:19;;;;;;;6.70;2.80;;;;;;;11.48;67.53;101688.80;104246;1288;62256;-68
2022/05/01 08:24:55;;;;;;;4.30;2.90;;;;;;;11.54;67.51;101690.09;104235;1288;62292;-66
2022/05/01 08:27:22;;;;;;;5.70;2.10;;;;;;;11.63;67.64;101692.91;103952;1290;76230;-66
2022/05/01 08:29:49;;;;;;;5.20;2.80;;;;;;;11.70;67.39;101689.55;104253;1288;72385;-67
2022/05/01 08:32:26;;;;;;;6.20;2.70;;;;;;;11.70;66.78;101688.09;104219;1288;72125;-67
2022/05/01 08:34:53;;;;;;;4.10;2.70;;;;;;;11.73;66.65;101693.48;104228;1290;63231;-68
2022/05/01 08:37:20;;;;;;;6.40;3.40;;;;;;;11.79;67.20;101695.25;104294;1290;60989;-66
2022/05/01 08:40:07;;;;;;;;;;;;;;;;;;;;;
2022/05/01 08:42:40;;;;;;;3.20;2.10;;;;;;;11.91;67.15;101696.64;104306;1288;70668;-67
2022/05/01 08:45:39;;;;;;;7.20;4.00;;;;;;;11.92;67.19;101694.19;104203;1288;72663;-67
2022/05/01 08:48:12;;;;;;;6.10;2.60;;;;;;;11.98;67.52;101693.94;104129;1288;63502;-67
2022/05/01 08:50:40;;;;;;;5.40;2.40;;;;;;;12.09;67.59;101692.28;104413;1288;61361;-68
2022/05/01 08:53:28;;;;;;;9.40;3.50;;;;;;;12.19;66.80;101695.13;104334;1288;76056;-66
2022/05/01 08:55:59;;;;;;;4.70;2.90;;;;;;;12.30;66.12;101692.56;104570;1288;72801;-66
2022/05/01 08:58:27;;;;;;;5.10;2.50;;;;;;;12.37;64.86;101694.59;105465;1287;73032;-68
2022/05/01 09:00:58;;;;;;;7.00;3.00;;;;;;;12.41;64.43;101697.58;104196;1290;61689;-68
2022/05/01 09:03:25;;;;;;;4.70;2.70;;;;;;;12.49;64.26;101696.41;104306;1288;61233;-67
2022/05/01 09:06:01;;;;;;;5.80;2.00;;;;;;;12.58;63.99;101695.52;104216;1287;76115;-66
2022/05/01 09:08:43;;;;;;;4.30;2.20;;;;;;;12.65;62.30;101700.84;104174;1288;73349;-67
2022/05/01 09:14:05;;;;;;;7.00;2.30;;;;;;;13.00;62.24;101696.08;104327;1287;61313;-68
2022/05/01 09:16:36;;;;;;;3.90;2.50;;;;;;;13.19;60.75;101697.53;104408;1288;61644;-67
2022/05/01 09:19:06;;;;;;;4.30;2.10;;;;;;;13.33;60.01;101696.79;104071;1290;76301;-67
2022/05/01 09:21:54;;;;;;;6.00;2.70;;;;;;;13.44;59.31;101698.24;104362;1288;71495;-67
2022/05/01 09:24:28;;;;;;;4.60;2.00;;;;;;;13.58;58.51;101699.47;104356;1288;74034;-66
2022/05/01 09:26:56;;;;;;;4.40;2.30;;;;;;;13.74;57.34;101702.07;104160;1288;61171;-68
2022/05/01 09:29:32;;;;;;;8.50;2.90;;;;;;;13.97;57.30;101705.09;105670;1288;59446;-70
2022/05/01 09:32:03;;;;;;;5.60;2.00;;;;;;;14.19;55.38;101703.36;104295;1288;76038;-67
2022/05/01 09:34:32;;;;;;;4.30;2.00;;;;;;;14.38;54.50;101704.77;104244;1290;70398;-68
2022/05/01 09:37:02;;;;;;;3.70;1.90;;;;;;;14.65;53.93;101705.44;104274;1288;74400;-67
2022/05/01 09:39:31;;;;;;;3.40;1.70;;;;;;;14.98;53.01;101697.29;104404;1288;63570;-67
2022/05/01 09:42:28;;;;;;;5.00;2.10;;;;;;;15.21;51.42;101692.93;103978;1287;462554;-67
2022/05/01 09:45:14;;;;;;;5.60;2.10;;;;;;;15.32;49.77;101693.59;104143;1288;74891;-67
2022/05/01 09:47:46;;;;;;;4.80;2.40;;;;;;;15.41;50.36;101690.45;104279;1288;72808;-69
2022/05/01 09:50:14;;;;;;;6.70;2.10;;;;;;;15.58;49.02;101692.72;104476;1288;74334;-67
2022/05/01 09:53:04;;;;;;;4.70;2.30;;;;;;;15.66;47.35;101693.57;104354;1288;61416;-68
2022/05/01 09:55:30;;;;;;;3.80;1.90;;;;;;;15.75;47.56;101689.84;104347;1288;61607;-66
2022/05/01 09:58:04;;;;;;;3.80;1.90;;;;;;;15.97;46.29;101683.69;104305;1288;76149;-66
2022/05/01 10:00:48;;;;;;;3.10;1.70;;;;;;;16.18;45.42;101685.02;104417;1288;72121;-65
2022/05/01 10:03:36;;;;;;;2.70;1.30;;;;;;;16.43;44.44;101679.66;104415;1288;73063;-63
2022/05/01 10:06:11;;;;;;;2.70;1.50;;;;;;;16.62;43.19;101676.79;104315;1288;61399;-66
2022/05/01 10:08:40;;;;;;;3.00;1.50;;;;;;;16.62;40.58;101674.63;104338;1288;61786;-66
2022/05/01 10:11:07;;;;;;;2.40;1.40;;;;;;;16.64;39.55;101673.89;104386;1288;75442;-66
2022/05/01 10:13:35;;;;;;;2.20;1.50;;;;;;;16.68;39.52;101674.92;104374;1287;72141;-68
2022/05/01 10:16:10;;;;;;;2.90;1.20;;;;;;;16.78;39.02;101678.52;104314;1288;71403;-65
2022/05/01 10:18:45;;;;;;;5.20;1.50;;;;;;;16.78;39.62;101676.05;104361;1288;61841;-66
2022/05/01 10:21:34;;;;;;;2.70;1.60;;;;;;;16.77;41.27;101674.15;104355;1288;62491;-66
2022/05/01 10:24:02;;;;;;;3.10;1.70;;;;;;;16.77;41.04;101671.88;104344;1288;76417;-66
2022/05/01 10:26:32;;;;;;;1.90;1.20;;;;;;;16.74;40.82;101667.85;105206;1288;72597;-65
2022/05/01 10:29:40;;;;;;;3.00;1.60;;;;;;;16.67;40.74;101667.21;104189;1290;72859;-65
2022/05/01 10:32:28;;;;;;;2.40;1.50;;;;;;;16.67;39.35;101661.45;104052;1288;61593;-66
2022/05/01 10:35:45;;;;;;;6.90;1.70;;;;;;;16.67;38.56;101662.05;104180;1288;61598;-66
2022/05/01 10:38:21;;;;;;;4.20;1.90;;;;;;;16.67;39.97;101658.27;104418;1287;76519;-69
2022/05/01 10:40:52;;;;;;;3.30;1.30;;;;;;;16.74;40.28;101655.14;104408;1288;71582;-65
2022/05/01 10:43:27;;;;;;;2.60;1.40;;;;;;;16.88;40.43;101652.88;104302;1288;74077;-66
2022/05/01 10:45:59;;;;;;;4.40;1.90;;;;;;;17.04;40.44;101652.64;104258;1288;61331;-66
2022/05/01 10:48:40;;;;;;;3.30;0.90;;;;;;;17.23;40.31;101645.77;104220;1287;61311;-66
2022/05/01 10:51:34;;;;;;;3.40;1.60;;;;;;;17.34;40.00;101642.83;104099;1290;75991;-67
2022/05/01 10:54:09;;;;;;;3.40;2.00;;;;;;;17.61;39.87;101643.52;104032;1290;72251;-65
2022/05/01 10:57:04;;;;;;;2.30;1.10;;;;;;;17.87;38.95;101643.09;104527;1288;74257;-66
2022/05/01 10:59:39;;;;;;;2.90;1.40;;;;;;;18.10;38.23;101642.77;104243;1288;61368;-65
2022/05/01 11:02:28;;;;;;;3.80;1.60;;;;;;;18.21;38.47;101634.50;104211;1288;61316;-64
2022/05/01 11:04:56;;;;;;;3.70;1.40;;;;;;;18.18;37.27;101631.48;104207;1288;73657;-66
2022/05/01 11:07:25;;;;;;;3.90;1.50;;;;;;;18.19;37.56;101634.41;104151;1288;72038;-66
2022/05/01 11:09:55;;;;;;;2.40;1.50;;;;;;;18.17;37.29;101628.66;104391;1290;73129;-66
2022/05/01 11:12:26;;;;;;;2.00;1.20;;;;;;;18.20;38.19;101627.55;104160;1288;61971;-64
2022/05/01 11:15:00;;;;;;;2.70;1.40;;;;;;;18.27;37.93;101624.14;104701;1288;61388;-65
2022/05/01 11:17:36;;;;;;;2.70;1.70;;;;;;;18.41;37.74;101623.49;104258;1288;73745;-65
2022/05/01 11:20:05;;;;;;;3.90;1.40;;;;;;;18.54;37.17;101624.17;104369;1288;71212;-64
2022/05/01 11:22:32;;;;;;;1.80;1.00;;;;;;;18.69;37.05;101614.81;104275;1287;72121;-65
2022/05/01 11:24:59;;;;;;;3.00;1.50;;;;;;;18.79;36.28;101611.77;104269;1288;61776;-65
2022/05/01 11:27:26;;;;;;;4.50;1.70;;;;;;;18.83;36.28;101608.93;104017;1290;61738;-66
2022/05/01 11:30:08;;;;;;;3.60;1.50;;;;;;;18.91;36.50;101609.39;104115;1290;74927;-66
2022/05/01 11:32:51;;;;;;;3.60;1.40;;;;;;;19.01;35.87;101605.35;104262;1287;71371;-65
2022/05/01 11:35:21;;;;;;;2.90;2.00;;;;;;;19.11;35.99;101604.05;104233;1288;74946;-65
2022/05/01 11:38:01;;;;;;;3.00;1.50;;;;;;;19.22;34.95;101606.74;104611;1288;62096;-66
2022/05/01 11:40:28;;;;;;;3.70;1.70;;;;;;;19.03;33.47;101604.00;104298;1288;61307;-66
2022/05/01 11:43:18;;;;;;;1.90;1.30;;;;;;;18.78;34.11;101605.11;104174;1288;76050;-65
2022/05/01 11:45:46;;;;;;;5.00;2.10;;;;;;;18.66;34.96;101597.81;105173;1287;69537;-65
2022/05/01 11:48:14;;;;;;;3.30;1.90;;;;;;;18.69;34.75;101599.10;104189;1288;73697;-65
2022/05/01 11:50:43;;;;;;;2.50;1.90;;;;;;;18.78;34.19;101596.84;103872;1288;61744;-67
2022/05/01 11:53:23;;;;;;;2.80;1.50;;;;;;;18.96;34.43;101592.50;106935;1287;60469;-65
2022/05/01 12:04:32;;;;;;;4.00;1.50;;;;;;;20.19;32.76;101575.79;104118;1288;61902;-67
2022/05/01 12:07:17;;;;;;;3.20;1.80;;;;;;;20.57;32.42;101573.41;104192;1288;61288;-65
2022/05/01 12:09:51;;;;;;;4.80;1.60;;;;;;;20.58;31.15;101567.34;103971;1290;76197;-65
2022/05/01 12:12:21;;;;;;;4.50;1.70;;;;;;;20.60;32.14;101566.54;104058;1288;72410;-65
2022/05/01 12:14:48;;;;;;;5.60;1.50;;;;;;;20.60;32.02;101569.08;103967;1290;74204;-65
2022/05/01 12:17:17;;;;;;;3.00;1.70;;;;;;;20.51;32.44;101568.72;104023;1288;61777;-66
2022/05/01 12:19:51;;;;;;;2.20;1.40;;;;;;;20.42;31.99;101564.27;105480;1288;61629;-65
2022/05/01 12:22:20;;;;;;;2.50;1.30;;;;;;;20.41;32.25;101561.75;103452;1288;75515;-64
2022/05/01 12:24:48;;;;;;;3.70;2.10;;;;;;;20.55;33.14;101559.02;103713;1288;70854;-68
2022/05/01 12:27:18;;;;;;;3.60;1.60;;;;;;;20.70;32.87;101558.79;104161;1288;72997;-65
2022/05/01 12:29:51;;;;;;;3.70;1.50;;;;;;;20.74;32.20;101557.51;104326;1290;61645;-66
2022/05/01 12:32:21;;;;;;;3.50;1.60;;;;;;;20.63;32.29;101552.89;104174;1289;61963;-65
2022/05/01 12:34:50;;;;;;;3.70;1.50;;;;;;;20.37;31.79;101556.50;104147;1288;74697;-66
2022/05/01 12:37:21;;;;;;;4.50;1.60;;;;;;;19.89;32.43;101554.59;105127;1288;70173;-66
2022/05/01 12:40:10;;;;;;;3.40;1.90;;;;;;;19.67;33.11;101551.62;104239;1288;74480;-67
2022/05/01 12:45:46;;;;;;;2.50;1.50;;;;;;;19.35;33.38;101553.52;104162;1288;61465;-65
2022/05/01 12:48:14;;;;;;;5.40;1.80;;;;;;;19.31;34.09;101554.60;104249;1288;75931;-65
2022/05/01 12:50:43;;;;;;;1.80;1.20;;;;;;;19.31;34.42;101551.08;104237;1288;72428;-65
2022/05/01 12:53:29;;;;;;;3.70;1.10;;;;;;;19.14;33.38;101547.66;104307;1288;73718;-67
2022/05/01 12:55:58;;;;;;;3.30;1.90;;;;;;;18.98;34.09;101548.61;104130;1288;61438;-68
2022/05/01 12:58:35;;;;;;;3.30;1.70;;;;;;;18.96;34.73;101546.21;104267;1288;61287;-64
2022/05/01 13:01:21;;;;;;;2.30;1.60;;;;;;;18.96;34.86;101546.63;104066;1288;74775;-66
2022/05/01 13:03:49;;;;;;;2.60;1.60;;;;;;;18.83;34.63;101550.55;104417;1288;71047;-66
2022/05/01 13:06:17;;;;;;;3.80;1.60;;;;;;;18.71;34.71;101548.77;104222;1287;73990;-66
2022/05/01 13:08:51;;;;;;;2.30;1.40;;;;;;;18.60;35.10;101548.24;104173;1288;61690;-64
2022/05/01 13:11:23;;;;;;;3.70;1.40;;;;;;;18.59;35.12;101545.67;104186;1288;61720;-65
2022/05/01 13:14:06;;;;;;;3.10;1.90;;;;;;;18.49;34.59;101547.54;104199;1288;75165;-66
2022/05/01 13:16:32;;;;;;;3.10;1.20;;;;;;;18.43;35.37;101538.54;105793;1288;71599;-64
2022/05/01 13:19:10;;;;;;;4.70;2.00;;;;;;;18.36;35.28;101540.35;104253;1288;61463;-67
2022/05/01 13:21:52;;;;;;;2.60;1.50;;;;;;;18.42;35.67;101539.84;104219;1288;61921;-67
2022/05/01 13:24:30;;;;;;;3.90;1.50;;;;;;;18.59;35.32;101538.69;104192;1288;61487;-67
2022/05/01 13:27:01;;;;;;;3.50;1.70;;;;;;;18.64;34.82;101538.85;104043;1288;74710;-65
2022/05/01 13:29:31;;;;;;;3.90;1.90;;;;;;;18.66;34.16;101536.13;104140;1287;71442;-66